createdAt,value
2023-02-14T00:02:08.812Z,8.73
2023-02-14T00:04:38.225Z,8.07
2023-02-14T00:07:06.868Z,7.53
2023-02-14T00:09:33.447Z,8.32
2023-02-14T00:11:59.978Z,6.70
2023-02-14T00:14:47.428Z,8.20
2023-02-14T00:17:16.522Z,8.02
2023-02-14T00:19:44.325Z,9.50
2023-02-14T00:22:10.905Z,7.63
2023-02-14T00:24:39.677Z,7.50
2023-02-14T00:27:06.245Z,8.32
2023-02-14T00:29:33.457Z,8.52
2023-02-14T00:32:01.855Z,10.07
2023-02-14T00:34:33.196Z,8.98
2023-02-14T00:37:00.305Z,9.43
2023-02-14T00:39:26.961Z,7.75
2023-02-14T00:41:53.606Z,7.85
2023-02-14T00:44:21.569Z,7.57
2023-02-14T00:46:50.515Z,8.73
2023-02-14T00:49:17.563Z,7.95
2023-02-14T00:51:44.145Z,7.80
2023-02-14T00:54:13.605Z,7.72
2023-02-14T00:56:40.172Z,7.30
2023-02-14T00:59:10.585Z,7.65
2023-02-14T01:01:40.069Z,9.82
2023-02-14T01:04:07.698Z,9.07
2023-02-14T01:06:34.326Z,9.07
2023-02-14T01:09:05.773Z,10.52
2023-02-14T01:11:33.022Z,7.40
2023-02-14T01:14:00.057Z,7.90
2023-02-14T01:16:27.797Z,8.80
2023-02-14T01:18:59.879Z,7.95
2023-02-14T01:21:30.479Z,5.85
2023-02-14T01:24:02.911Z,8.25
2023-02-14T01:26:32.331Z,8.45
2023-02-14T01:29:01.434Z,9.88
2023-02-14T01:31:33.244Z,7.55
2023-02-14T01:34:00.502Z,9.27
2023-02-14T01:36:40.658Z,7.35
2023-02-14T01:39:14.572Z,8.48
2023-02-14T01:41:43.901Z,7.22
2023-02-14T01:44:19.264Z,13.65
2023-02-14T01:46:46.153Z,8.18
2023-02-14T01:49:18.986Z,8.02
2023-02-14T01:51:53.081Z,11.00
2023-02-14T01:54:23.878Z,6.95
2023-02-14T01:56:58.340Z,7.57
2023-02-14T01:59:30.350Z,6.53
2023-02-14T02:01:57.245Z,7.10
2023-02-14T02:04:28.930Z,10.10
2023-02-14T02:06:59.851Z,8.18
2023-02-14T02:09:38.424Z,7.68
2023-02-14T02:12:05.304Z,9.07
2023-02-14T02:14:32.567Z,9.05
2023-02-14T02:17:04.811Z,9.57
2023-02-14T02:22:22.926Z,7.45
2023-02-14T02:25:34.329Z,9.20
2023-02-14T02:28:04.095Z,9.48
2023-02-14T02:33:45.846Z,6.47
2023-02-14T02:36:42.264Z,9.80
2023-02-14T02:39:30.861Z,7.47
2023-02-14T02:42:35.144Z,8.52
2023-02-14T02:45:21.786Z,6.97
2023-02-14T02:48:06.262Z,8.55
2023-02-14T02:51:02.088Z,8.82
2023-02-14T02:53:47.695Z,6.82
2023-02-14T02:56:46.702Z,8.88
2023-02-14T02:59:24.701Z,7.72
2023-02-14T03:02:21.450Z,8.70
2023-02-14T03:04:54.184Z,8.60
2023-02-14T03:07:40.340Z,7.28
2023-02-14T03:10:16.692Z,7.57
2023-02-14T03:13:04.800Z,9.23
2023-02-14T03:15:52.902Z,10.32
2023-02-14T03:19:12.084Z,9.48
2023-02-14T03:21:49.983Z,9.90
2023-02-14T03:24:25.454Z,7.97
2023-02-14T03:27:06.705Z,6.22
2023-02-14T03:30:02.920Z,5.22
2023-02-14T03:32:48.441Z,7.43
2023-02-14T03:35:18.549Z,8.68
2023-02-14T03:38:00.617Z,7.18
2023-02-14T03:40:34.327Z,8.57
2023-02-14T03:43:08.336Z,9.20
2023-02-14T03:46:01.601Z,6.40
2023-02-14T03:48:32.948Z,9.15
2023-02-14T03:51:01.319Z,6.93
2023-02-14T03:53:32.237Z,6.30
2023-02-14T03:56:10.185Z,7.03
2023-02-14T03:58:39.281Z,7.70
2023-02-14T04:01:23.264Z,8.30
2023-02-14T04:03:55.685Z,5.75
2023-02-14T04:06:22.647Z,9.43
2023-02-14T04:08:49.313Z,9.27
2023-02-14T04:11:15.888Z,8.15
2023-02-14T04:13:42.477Z,8.25
2023-02-14T04:16:14.720Z,6.65
2023-02-14T04:18:59.949Z,7.53
2023-02-14T04:21:27.737Z,8.38
2023-02-14T04:23:56.891Z,10.65
2023-02-14T04:26:23.509Z,7.78
2023-02-14T04:28:51.339Z,10.60
2023-02-14T04:31:20.461Z,7.50
2023-02-14T04:33:47.998Z,7.57
2023-02-14T04:36:15.045Z,8.15
2023-02-14T04:38:41.659Z,7.25
2023-02-14T04:41:08.269Z,8.00
2023-02-14T04:43:37.015Z,9.95
2023-02-14T04:46:05.765Z,8.50
2023-02-14T04:48:32.325Z,9.35
2023-02-14T04:51:01.713Z,9.27
2023-02-14T04:53:28.874Z,8.48
2023-02-14T04:55:57.863Z,7.18
2023-02-14T04:58:24.457Z,8.65
2023-02-14T05:00:51.334Z,10.13
2023-02-14T05:03:20.029Z,7.85
2023-02-14T05:05:46.585Z,9.32
2023-02-14T05:08:14.258Z,7.95
2023-02-14T05:10:41.173Z,9.18
2023-02-14T05:13:07.991Z,6.75
2023-02-14T05:15:37.472Z,8.27
2023-02-14T05:18:05.590Z,6.85
2023-02-14T05:20:32.656Z,7.40
2023-02-14T05:23:03.169Z,6.43
2023-02-14T05:25:30.608Z,6.72
2023-02-14T05:28:00.044Z,7.13
2023-02-14T05:30:27.889Z,9.30
2023-02-14T05:32:54.620Z,6.90
2023-02-14T05:35:23.098Z,8.90
2023-02-14T05:37:49.818Z,9.50
2023-02-14T05:40:16.823Z,8.57
2023-02-14T05:42:43.780Z,8.25
2023-02-14T05:45:13.229Z,7.57
2023-02-14T05:47:40.009Z,10.38
2023-02-14T05:50:10.620Z,9.77
2023-02-14T05:52:37.995Z,8.88
2023-02-14T05:55:05.478Z,9.95
2023-02-14T05:57:32.326Z,8.25
2023-02-14T05:59:58.962Z,13.00
2023-02-14T06:02:25.573Z,9.73
2023-02-14T06:04:52.400Z,9.55
2023-02-14T06:07:19.271Z,11.25
2023-02-14T06:09:45.855Z,8.93
2023-02-14T06:12:12.505Z,12.20
2023-02-14T06:14:41.230Z,10.02
2023-02-14T06:17:07.774Z,10.57
2023-02-14T06:19:34.385Z,10.98
2023-02-14T06:22:00.940Z,7.60
2023-02-14T06:24:27.598Z,9.82
2023-02-14T06:26:54.185Z,8.10
2023-02-14T06:29:20.764Z,10.70
2023-02-14T06:31:47.533Z,9.38
2023-02-14T06:34:17.387Z,8.40
2023-02-14T06:36:44.682Z,6.53
2023-02-14T06:39:11.289Z,9.07
2023-02-14T06:41:37.901Z,8.95
2023-02-14T06:44:04.713Z,9.63
2023-02-14T06:46:31.329Z,8.48
2023-02-14T06:48:57.906Z,13.25
2023-02-14T06:51:24.529Z,10.38
2023-02-14T06:53:51.323Z,10.52
2023-02-14T06:56:17.870Z,11.77
2023-02-14T06:58:44.457Z,12.00
2023-02-14T07:01:11.109Z,11.65
2023-02-14T07:03:39.668Z,13.90
2023-02-14T07:06:06.319Z,11.68
2023-02-14T07:08:32.871Z,15.38
2023-02-14T07:10:59.890Z,13.50
2023-02-14T07:13:26.603Z,11.63
2023-02-14T07:15:53.238Z,15.00
2023-02-14T07:18:19.813Z,15.10
2023-02-14T07:20:46.462Z,15.93
2023-02-14T07:23:13.018Z,20.10
2023-02-14T07:25:41.999Z,18.15
2023-02-14T07:28:08.667Z,16.80
2023-02-14T07:30:35.265Z,19.00
2023-02-14T07:33:01.878Z,21.17
2023-02-14T07:35:28.484Z,20.02
2023-02-14T07:37:55.176Z,22.08
2023-02-14T07:40:21.779Z,23.35
2023-02-14T07:42:55.136Z,18.95
2023-02-14T07:45:23.344Z,17.60
2023-02-14T07:47:52.619Z,18.35
2023-02-14T07:50:20.689Z,18.88
2023-02-14T07:52:47.698Z,17.17
2023-02-14T07:55:14.336Z,17.65
2023-02-14T07:57:40.896Z,16.48
2023-02-14T08:00:08.169Z,19.60
2023-02-14T08:02:38.583Z,16.00
2023-02-14T08:05:05.649Z,17.95
2023-02-14T08:07:32.268Z,16.90
2023-02-14T08:09:58.853Z,16.45
2023-02-14T08:12:44.026Z,17.20
2023-02-14T08:15:29.557Z,18.60
2023-02-14T08:17:56.996Z,17.77
2023-02-14T08:20:23.538Z,18.55
2023-02-14T08:22:50.087Z,19.17
2023-02-14T08:25:16.665Z,24.85
2023-02-14T08:27:43.219Z,29.05
2023-02-14T08:30:10.138Z,23.25
2023-02-14T08:32:36.915Z,21.25
2023-02-14T08:35:03.542Z,21.95
2023-02-14T08:37:30.093Z,20.10
2023-02-14T08:39:56.713Z,20.38
2023-02-14T08:42:23.330Z,21.38
2023-02-14T08:44:49.911Z,18.55
2023-02-14T08:47:16.482Z,19.10
2023-02-14T08:49:43.328Z,21.10
2023-02-14T08:52:09.898Z,19.70
2023-02-14T08:54:38.647Z,25.05
2023-02-14T08:57:05.455Z,20.88
2023-02-14T08:59:32.080Z,25.85
2023-02-14T09:01:58.880Z,23.48
2023-02-14T09:04:25.561Z,22.83
2023-02-14T09:06:52.273Z,25.60
2023-02-14T09:09:21.982Z,31.95
2023-02-14T09:11:48.565Z,29.25
2023-02-14T09:14:16.368Z,29.58
2023-02-14T09:16:43.072Z,27.02
2023-02-14T09:19:12.452Z,27.75
2023-02-14T09:21:40.622Z,25.13
2023-02-14T09:24:07.287Z,29.85
2023-02-14T09:26:38.697Z,25.48
2023-02-14T09:29:05.281Z,25.40
2023-02-14T09:31:32.037Z,26.83
2023-02-14T09:34:17.352Z,28.30
2023-02-14T09:36:43.960Z,30.88
2023-02-14T09:39:10.546Z,28.67
2023-02-14T09:42:06.149Z,27.10
2023-02-14T09:44:53.988Z,26.13
2023-02-14T09:47:41.624Z,24.80
2023-02-14T09:50:30.088Z,26.30
2023-02-14T09:53:06.227Z,23.95
2023-02-14T09:55:58.920Z,24.73
2023-02-14T09:58:35.589Z,27.35
2023-02-14T10:01:18.161Z,23.02
2023-02-14T10:04:26.702Z,25.83
2023-02-14T10:07:30.007Z,22.27
2023-02-14T10:10:15.029Z,23.55
2023-02-14T10:12:53.433Z,25.50
2023-02-14T10:15:32.012Z,25.45
2023-02-14T10:18:08.004Z,25.92
2023-02-14T10:20:49.403Z,24.52
2023-02-14T10:23:37.658Z,26.33
2023-02-14T10:26:05.856Z,24.23
2023-02-14T10:28:44.434Z,24.45
2023-02-14T10:31:16.423Z,26.38
2023-02-14T10:33:51.556Z,22.55
2023-02-14T10:36:33.813Z,23.63
2023-02-14T10:39:12.154Z,23.20
2023-02-14T10:41:49.786Z,22.48
2023-02-14T10:44:22.981Z,24.65
2023-02-14T10:47:17.312Z,24.83
2023-02-14T10:49:50.166Z,23.65
2023-02-14T10:52:38.617Z,22.23
2023-02-14T10:55:32.903Z,23.42
2023-02-14T10:58:03.959Z,25.05
2023-02-14T11:00:34.936Z,21.33
2023-02-14T11:03:06.443Z,22.40
2023-02-14T11:05:37.924Z,25.10
2023-02-14T11:08:44.166Z,23.58
2023-02-14T11:11:29.328Z,23.08
2023-02-14T11:13:56.111Z,21.15
2023-02-14T11:16:30.397Z,24.92
2023-02-14T11:19:20.857Z,24.02
2023-02-14T11:21:50.453Z,26.40
2023-02-14T11:24:18.630Z,25.52
2023-02-14T11:26:48.226Z,23.98
2023-02-14T11:29:18.882Z,24.75
2023-02-14T11:31:45.615Z,23.05
2023-02-14T11:34:25.114Z,22.77
2023-02-14T11:36:51.805Z,23.25
2023-02-14T11:39:31.275Z,25.30
2023-02-14T11:42:01.232Z,24.75
2023-02-14T11:44:29.650Z,25.05
2023-02-14T11:47:15.543Z,24.30
2023-02-14T11:49:58.116Z,22.98
2023-02-14T11:52:28.852Z,24.05
2023-02-14T11:54:57.302Z,25.73
2023-02-14T11:57:34.600Z,27.02
2023-02-14T12:00:05.088Z,25.20
2023-02-14T12:02:43.665Z,24.75
2023-02-14T12:05:27.569Z,26.05
2023-02-14T12:08:02.366Z,23.75
2023-02-14T12:10:37.979Z,25.20
2023-02-14T12:13:28.704Z,22.23
2023-02-14T12:15:58.216Z,23.38
2023-02-14T12:18:42.753Z,22.92
2023-02-14T12:21:27.973Z,22.40
2023-02-14T12:24:27.825Z,22.15
2023-02-14T12:27:23.743Z,24.15
2023-02-14T12:29:59.240Z,21.02
2023-02-14T12:32:31.267Z,21.55
2023-02-14T12:35:19.990Z,22.65
2023-02-14T12:38:04.342Z,21.85
2023-02-14T12:40:58.105Z,22.83
2023-02-14T12:43:43.907Z,22.98
2023-02-14T12:46:43.241Z,22.23
2023-02-14T12:49:42.728Z,20.15
2023-02-14T12:52:55.681Z,20.35
2023-02-14T12:55:28.434Z,18.25
2023-02-14T12:58:12.563Z,17.85
2023-02-14T13:00:46.956Z,20.50
2023-02-14T13:03:31.213Z,20.15
2023-02-14T13:06:18.684Z,19.33
2023-02-14T13:09:09.673Z,21.13
2023-02-14T13:11:48.650Z,18.55
2023-02-14T13:14:47.307Z,18.35
2023-02-14T13:17:48.938Z,18.23
2023-02-14T13:20:15.647Z,17.30
2023-02-14T13:22:43.643Z,18.02
2023-02-14T13:25:37.461Z,18.42
2023-02-14T13:28:07.270Z,17.80
2023-02-14T13:30:37.037Z,15.10
2023-02-14T13:33:09.511Z,15.77
2023-02-14T13:38:12.424Z,15.38
2023-02-14T13:40:40.077Z,17.30
2023-02-14T13:43:06.728Z,16.52
2023-02-14T13:45:37.465Z,19.40
2023-02-14T13:48:18.352Z,15.88
2023-02-14T13:51:08.082Z,16.95
2023-02-14T13:53:48.287Z,17.50
2023-02-14T13:56:15.275Z,17.65
2023-02-14T13:59:24.589Z,16.30
2023-02-14T14:01:51.718Z,20.52
2023-02-14T14:04:33.258Z,16.30
2023-02-14T14:07:02.826Z,16.60
2023-02-14T14:09:44.729Z,17.40
2023-02-14T14:12:27.607Z,17.77
2023-02-14T14:15:06.198Z,17.52
2023-02-14T14:17:39.273Z,15.00
2023-02-14T14:20:20.558Z,15.52
2023-02-14T14:22:58.378Z,15.35
2023-02-14T14:25:42.199Z,16.13
2023-02-14T14:28:11.356Z,17.48
2023-02-14T14:30:44.424Z,18.25
2023-02-14T14:33:22.925Z,16.60
2023-02-14T14:36:11.012Z,15.70
2023-02-14T14:38:53.345Z,15.50
2023-02-14T14:41:28.691Z,13.75
2023-02-14T14:43:55.440Z,15.02
2023-02-14T14:46:22.738Z,13.15
2023-02-14T14:48:56.707Z,14.27
2023-02-14T14:51:35.366Z,15.35
2023-02-14T14:54:25.102Z,16.13
2023-02-14T14:57:03.600Z,15.50
2023-02-14T14:59:35.262Z,17.17
2023-02-14T15:02:03.743Z,16.98
2023-02-14T15:04:34.011Z,16.15
2023-02-14T15:07:21.256Z,15.98
2023-02-14T15:09:47.906Z,14.32
2023-02-14T15:12:38.929Z,17.48
2023-02-14T15:15:09.908Z,17.50
2023-02-14T15:17:38.290Z,22.42
2023-02-14T15:20:25.396Z,20.98
2023-02-14T15:22:53.503Z,18.15
2023-02-14T15:25:21.699Z,18.23
2023-02-14T15:27:49.027Z,19.77
2023-02-14T15:30:28.986Z,21.60
2023-02-14T15:32:56.206Z,22.73
2023-02-14T15:35:29.329Z,20.30
2023-02-14T15:38:00.228Z,20.10
2023-02-14T15:43:14.066Z,17.00
2023-02-14T15:45:42.545Z,20.13
2023-02-14T15:48:23.650Z,19.42
2023-02-14T15:50:52.766Z,20.40
2023-02-14T15:53:19.313Z,21.00
2023-02-14T15:55:51.195Z,20.17
2023-02-14T15:58:29.598Z,25.13
2023-02-14T16:00:56.537Z,19.73
2023-02-14T16:03:28.760Z,22.35
2023-02-14T16:05:55.631Z,22.88
2023-02-14T16:08:35.329Z,16.98
2023-02-14T16:11:29.737Z,20.00
2023-02-14T16:13:56.887Z,19.30
2023-02-14T16:16:23.440Z,17.92
2023-02-14T16:18:56.713Z,18.23
2023-02-14T16:21:27.435Z,18.17
2023-02-14T16:24:11.274Z,21.00
2023-02-14T16:26:40.907Z,18.27
2023-02-14T16:29:09.852Z,16.13
2023-02-14T16:31:48.475Z,15.80
2023-02-14T16:34:23.938Z,17.52
2023-02-14T16:36:53.478Z,16.20
2023-02-14T16:39:24.674Z,17.27
2023-02-14T16:41:53.409Z,18.02
2023-02-14T16:44:20.375Z,15.13
2023-02-14T16:46:46.934Z,16.20
2023-02-14T16:49:14.453Z,15.20
2023-02-14T16:51:44.014Z,17.17
2023-02-14T16:54:20.316Z,17.73
2023-02-14T16:56:52.261Z,17.25
2023-02-14T16:59:18.918Z,16.92
2023-02-14T17:01:45.731Z,16.23
2023-02-14T17:04:12.698Z,16.83
2023-02-14T17:06:43.222Z,16.23
2023-02-14T17:09:11.983Z,19.15
2023-02-14T17:11:43.403Z,18.27
2023-02-14T17:14:14.726Z,16.30
2023-02-14T17:16:42.355Z,14.57
2023-02-14T17:19:09.422Z,19.00
2023-02-14T17:21:36.098Z,16.75
2023-02-14T17:24:03.367Z,18.63
2023-02-14T17:26:30.216Z,15.40
2023-02-14T17:28:56.811Z,16.55
2023-02-14T17:31:23.604Z,18.10
2023-02-14T17:33:50.248Z,20.70
2023-02-14T17:36:16.992Z,16.17
2023-02-14T17:38:43.691Z,18.30
2023-02-14T17:41:18.560Z,16.13
2023-02-14T17:43:45.998Z,16.45
2023-02-14T17:46:16.125Z,16.00
2023-02-14T17:48:45.399Z,15.20
2023-02-14T17:51:13.610Z,14.32
2023-02-14T17:53:41.560Z,14.57
2023-02-14T17:56:22.406Z,18.63
2023-02-14T17:58:57.008Z,14.73
2023-02-14T18:01:26.430Z,16.20
2023-02-14T18:03:54.327Z,14.88
2023-02-14T18:06:25.821Z,14.68
2023-02-14T18:08:57.384Z,15.07
2023-02-14T18:11:26.866Z,16.40
2023-02-14T18:13:57.163Z,16.15
2023-02-14T18:16:26.543Z,13.60
2023-02-14T18:18:58.088Z,17.13
2023-02-14T18:21:28.014Z,12.77
2023-02-14T18:23:55.267Z,15.20
2023-02-14T18:26:21.862Z,14.75
2023-02-14T18:28:50.776Z,14.88
2023-02-14T18:31:18.382Z,13.90
2023-02-14T18:33:46.684Z,12.95
2023-02-14T18:36:17.025Z,13.07
2023-02-14T18:38:47.329Z,14.27
2023-02-14T18:41:17.302Z,13.57
2023-02-14T18:43:44.915Z,13.85
2023-02-14T18:46:30.810Z,12.93
2023-02-14T18:49:00.083Z,12.57
2023-02-14T18:51:34.008Z,12.88
2023-02-14T18:54:04.453Z,11.80
2023-02-14T18:56:36.901Z,14.27
2023-02-14T18:59:10.809Z,13.43
2023-02-14T19:01:42.708Z,13.95
2023-02-14T19:04:12.718Z,16.25
2023-02-14T19:06:41.799Z,15.77
2023-02-14T19:09:12.328Z,14.52
2023-02-14T19:11:45.554Z,14.15
2023-02-14T19:14:15.042Z,18.65
2023-02-14T19:16:53.405Z,17.65
2023-02-14T19:19:20.349Z,14.52
2023-02-14T19:21:53.161Z,17.58
2023-02-14T19:24:24.748Z,16.00
2023-02-14T19:26:52.645Z,13.68
2023-02-14T19:29:23.309Z,12.60
2023-02-14T19:31:52.964Z,14.80
2023-02-14T19:34:22.471Z,12.82
2023-02-14T19:36:53.174Z,14.18
2023-02-14T19:39:20.975Z,13.25
2023-02-14T19:41:50.026Z,14.10
2023-02-14T19:44:24.813Z,14.55
2023-02-14T19:46:56.650Z,16.17
2023-02-14T19:49:29.976Z,18.20
2023-02-14T19:51:59.563Z,15.20
2023-02-14T19:54:28.457Z,14.88
2023-02-14T19:56:56.095Z,13.77
2023-02-14T19:59:24.216Z,13.13
2023-02-14T20:01:54.314Z,14.43
2023-02-14T20:04:27.166Z,13.93
2023-02-14T20:06:54.736Z,13.43
2023-02-14T20:09:22.639Z,14.13
2023-02-14T20:11:54.398Z,14.38
2023-02-14T20:14:31.476Z,13.13
2023-02-14T20:17:00.884Z,18.80
2023-02-14T20:19:32.290Z,13.07
2023-02-14T20:21:59.022Z,15.57
2023-02-14T20:24:29.570Z,16.02
2023-02-14T20:27:01.401Z,13.43
2023-02-14T20:29:33.494Z,15.65
2023-02-14T20:32:03.202Z,14.35
2023-02-14T20:34:29.965Z,14.13
2023-02-14T20:36:59.490Z,14.07
2023-02-14T20:39:30.981Z,12.60
2023-02-14T20:41:59.963Z,14.45
2023-02-14T20:44:31.032Z,16.65
2023-02-14T20:47:02.928Z,12.23
2023-02-14T20:49:31.016Z,13.38
2023-02-14T20:51:58.079Z,13.52
2023-02-14T20:54:26.647Z,14.07
2023-02-14T20:56:53.817Z,11.32
2023-02-14T20:59:27.145Z,10.23
2023-02-14T21:01:57.396Z,11.88
2023-02-14T21:04:24.466Z,11.98
2023-02-14T21:06:51.270Z,11.73
2023-02-14T21:09:20.276Z,15.60
2023-02-14T21:11:51.396Z,12.48
2023-02-14T21:14:22.763Z,14.95
2023-02-14T21:16:49.447Z,17.03
2023-02-14T21:19:20.449Z,16.58
2023-02-14T21:21:49.301Z,16.00
2023-02-14T21:24:18.617Z,14.82
2023-02-14T21:26:47.865Z,16.02
2023-02-14T21:29:16.869Z,17.73
2023-02-14T21:31:43.639Z,16.63
2023-02-14T21:34:19.342Z,19.40
2023-02-14T21:36:48.364Z,18.35
2023-02-14T21:39:17.922Z,16.40
2023-02-14T21:41:47.266Z,16.63
2023-02-14T21:44:35.734Z,19.42
2023-02-14T21:47:02.748Z,18.55
2023-02-14T21:49:50.461Z,21.48
2023-02-14T21:52:20.143Z,16.58
2023-02-14T21:54:47.230Z,20.98
2023-02-14T21:57:14.287Z,18.08
2023-02-14T21:59:43.622Z,18.73
2023-02-14T22:02:17.019Z,20.95
2023-02-14T22:04:45.396Z,20.90
2023-02-14T22:07:14.546Z,22.42
2023-02-14T22:09:46.238Z,23.17
2023-02-14T22:12:15.150Z,20.08
2023-02-14T22:14:41.710Z,21.60
2023-02-14T22:17:11.152Z,21.13
2023-02-14T22:19:37.716Z,21.27
2023-02-14T22:22:04.653Z,23.02
2023-02-14T22:24:31.280Z,19.10
2023-02-14T22:26:57.887Z,19.98
2023-02-14T22:29:25.973Z,20.20
2023-02-14T22:31:52.658Z,21.30
2023-02-14T22:34:20.654Z,21.83
2023-02-14T22:36:49.689Z,19.48
2023-02-14T22:39:16.948Z,19.88
2023-02-14T22:41:44.139Z,25.15
2023-02-14T22:44:12.218Z,22.75
2023-02-14T22:46:38.924Z,19.17
2023-02-14T22:49:06.708Z,17.60
2023-02-14T22:51:43.598Z,20.00
2023-02-14T22:54:13.773Z,21.05
2023-02-14T22:56:53.852Z,19.15
2023-02-14T22:59:24.636Z,18.63
2023-02-14T23:01:52.507Z,21.60
2023-02-14T23:04:21.693Z,21.92
2023-02-14T23:06:58.441Z,24.70
2023-02-14T23:09:30.562Z,20.63
2023-02-14T23:12:02.436Z,24.88
2023-02-14T23:14:50.125Z,23.88
2023-02-14T23:17:55.700Z,22.85
2023-02-14T23:20:40.734Z,24.05
2023-02-14T23:23:09.732Z,20.95
2023-02-14T23:25:36.358Z,27.27
2023-02-14T23:28:05.277Z,22.20
2023-02-14T23:30:33.848Z,21.42
2023-02-14T23:33:00.454Z,21.45
2023-02-14T23:35:29.370Z,22.00
2023-02-14T23:37:58.237Z,26.58
2023-02-14T23:40:24.968Z,22.95
2023-02-14T23:42:54.906Z,22.80
2023-02-14T23:45:39.742Z,22.30
2023-02-14T23:48:08.209Z,24.60
2023-02-14T23:50:34.841Z,20.02
2023-02-14T23:53:01.437Z,22.45
2023-02-14T23:55:31.311Z,25.08
2023-02-14T23:57:58.707Z,26.25
